KDMA

Davis Monthan AFB Airport

Tucson, Arizona, USA
METAR KDMA 210658Z AUTO 11006KT 10SM CLR 21/M06 A2986 RMK AO2 SLP068 T02121056 403630150 $
Observed Flight Rules
May-21 @ 06:58 UTC (23 minutes ago) Visual Flight Rules
Wind Visibility Clouds
110° at 6 knots 10 miles
  • Clear skies
Temperatures Readings
Current 21°C / 70°F
Dewpoint -6°C / 21°F
Humidity 16%
Altimeter 29.86" Hg
Pressure 1006.8 hPa
Elevation 824
METAR KDMA 210658Z AUTO 11006KT 10SM CLR 21/M06 A2986 RMK AO2 SLP068 T02121056 403630150 $
Observed Flight Rules
May-21 @ 06:58 UTC
(23 minutes ago)
VFR
Wind Visibility
110° at 6 knots 10 miles
Clouds
  • Clear skies
Temperature Dewpoint
21°C / 70°F -6°C / 21°F
Humidity Altimeter Pressure
16% 29.86" Hg 1006.8 hPa